Time;durP1;ratioP1;P1;durP2;ratioP2;P2;SDS_P1;SDS_P2;PMS_P1;PMS_P2;Temp;Humidity;BMP_temperature;BMP_pressure;BME280_temperature;BME280_humidity;BME280_pressure;Samples;Min_cycle;Max_cycle;Signal;HPM_P1;HPM_P2
2023/09/05 00:01:50;;;;;;;5.35;2.90;;;;;;;;;;5076837;28;20450;-81
2023/09/05 00:04:17;;;;;;;5.30;2.75;;;;;;;;;;5076305;28;20051;-81
2023/09/05 00:06:44;;;;;;;5.97;3.00;;;;;;;;;;5077017;28;20050;-81
2023/09/05 00:09:10;;;;;;;5.45;2.80;;;;;;;;;;5076834;28;20257;-81
2023/09/05 00:11:38;;;;;;;5.95;3.10;;;;;;;;;;5076918;28;20070;-81
2023/09/05 00:14:05;;;;;;;5.85;3.03;;;;;;;;;;5077633;28;20060;-80
2023/09/05 00:16:31;;;;;;;6.68;3.30;;;;;;;;;;5077970;28;20051;-81
2023/09/05 00:18:58;;;;;;;6.45;3.40;;;;;;;;;;5076997;28;20049;-80
2023/09/05 00:21:25;;;;;;;5.85;3.15;;;;;;;;;;5074474;28;20071;-81
2023/09/05 00:23:51;;;;;;;5.65;3.25;;;;;;;;;;5073309;28;20049;-81
2023/09/05 00:26:17;;;;;;;6.28;3.08;;;;;;;;;;5071804;28;20052;-80
2023/09/05 00:28:46;;;;;;;5.50;2.97;;;;;;;;;;5071809;28;20051;-81
2023/09/05 00:31:14;;;;;;;6.60;2.80;;;;;;;;;;5071055;28;20053;-80
2023/09/05 00:33:40;;;;;;;6.05;3.15;;;;;;;;;;5071804;28;20241;-81
2023/09/05 00:36:08;;;;;;;5.22;3.00;;;;;;;;;;5072121;28;20044;-81
2023/09/05 00:38:35;;;;;;;5.32;2.90;;;;;;;;;;5072447;28;20426;-81
2023/09/05 00:41:02;;;;;;;5.82;3.42;;;;;;;;;;5072552;28;20101;-80
2023/09/05 00:43:28;;;;;;;5.18;2.92;;;;;;;;;;5072952;28;20063;-81
2023/09/05 00:45:56;;;;;;;4.90;2.92;;;;;;;;;;5072446;28;20041;-81
2023/09/05 00:48:27;;;;;;;6.43;2.85;;;;;;;;;;5069273;28;20041;-81
2023/09/05 00:50:56;;;;;;;5.43;2.95;;;;;;;;;;5074356;28;20048;-80
2023/09/05 00:53:23;;;;;;;5.88;3.30;;;;;;;;;;5078514;28;20056;-80
2023/09/05 00:55:50;;;;;;;6.60;3.10;;;;;;;;;;5079022;28;20051;-81
2023/09/05 00:58:16;;;;;;;5.82;3.30;;;;;;;;;;5076384;28;20060;-81
2023/09/05 01:00:43;;;;;;;5.88;3.45;;;;;;;;;;5075310;28;20049;-80
2023/09/05 01:03:11;;;;;;;5.82;3.22;;;;;;;;;;5076843;28;20040;-80
2023/09/05 01:05:43;;;;;;;4.75;2.40;;;;;;;;;;5075292;28;20436;-80
2023/09/05 01:08:14;;;;;;;6.57;3.25;;;;;;;;;;5071263;28;20041;-80
2023/09/05 01:10:49;;;;;;;5.88;3.17;;;;;;;;;;5070512;28;20047;-81
2023/09/05 01:13:19;;;;;;;5.88;2.67;;;;;;;;;;5074263;28;20048;-80
2023/09/05 01:15:46;;;;;;;6.40;3.25;;;;;;;;;;5077547;28;20519;-80
2023/09/05 01:18:14;;;;;;;6.70;3.08;;;;;;;;;;5073592;28;20060;-80
2023/09/05 01:20:50;;;;;;;5.63;2.53;;;;;;;;;;5073223;28;20048;-80
2023/09/05 01:23:18;;;;;;;5.15;2.92;;;;;;;;;;5073861;28;20044;-80
2023/09/05 01:25:46;;;;;;;6.35;3.42;;;;;;;;;;5073642;28;20374;-80
2023/09/05 01:28:14;;;;;;;4.97;3.08;;;;;;;;;;5073486;28;20047;-80
2023/09/05 01:30:42;;;;;;;5.43;3.35;;;;;;;;;;5073422;28;20064;-79
2023/09/05 01:33:08;;;;;;;5.65;3.38;;;;;;;;;;5069534;28;20140;-79
2023/09/05 01:35:35;;;;;;;5.50;3.10;;;;;;;;;;5072804;28;20048;-79
2023/09/05 01:38:01;;;;;;;4.57;2.70;;;;;;;;;;5073214;28;20422;-80
2023/09/05 01:40:28;;;;;;;6.28;3.03;;;;;;;;;;5070855;28;20053;-80
2023/09/05 01:42:56;;;;;;;7.13;3.30;;;;;;;;;;5075392;28;20461;-80
2023/09/05 01:45:22;;;;;;;5.30;3.00;;;;;;;;;;5076601;28;20041;-80
2023/09/05 01:47:49;;;;;;;5.32;2.85;;;;;;;;;;5075534;28;20581;-80
2023/09/05 01:50:15;;;;;;;5.72;2.92;;;;;;;;;;5077272;28;20048;-80
2023/09/05 01:52:42;;;;;;;5.88;3.35;;;;;;;;;;5077747;28;20113;-80
2023/09/05 01:55:09;;;;;;;5.45;2.95;;;;;;;;;;5083902;28;20074;-79
2023/09/05 01:57:36;;;;;;;6.10;3.35;;;;;;;;;;5083513;28;20055;-80
2023/09/05 02:00:04;;;;;;;6.15;3.38;;;;;;;;;;5072446;28;20506;-80
2023/09/05 02:02:30;;;;;;;5.70;3.35;;;;;;;;;;5067835;28;20056;-79
2023/09/05 02:04:57;;;;;;;5.25;3.00;;;;;;;;;;5074530;28;20495;-80
2023/09/05 02:07:24;;;;;;;4.90;2.97;;;;;;;;;;5074135;28;20051;-79
2023/09/05 02:09:50;;;;;;;5.13;3.20;;;;;;;;;;5072402;28;20048;-80
2023/09/05 02:12:17;;;;;;;6.05;3.22;;;;;;;;;;5072407;28;20040;-79
2023/09/05 02:14:47;;;;;;;5.53;3.75;;;;;;;;;;5078192;28;20433;-80
2023/09/05 02:17:15;;;;;;;;;;;;;;;;;;5078304;28;20060;-79
2023/09/05 02:19:42;;;;;;;5.15;2.97;;;;;;;;;;5077213;28;20221;-80
2023/09/05 02:22:09;;;;;;;4.55;3.05;;;;;;;;;;5076764;28;20053;-78
2023/09/05 02:24:35;;;;;;;6.30;3.10;;;;;;;;;;5070814;28;20113;-79
2023/09/05 02:27:02;;;;;;;6.65;3.35;;;;;;;;;;5070211;28;20542;-79
2023/09/05 02:29:29;;;;;;;5.45;3.05;;;;;;;;;;5092677;28;20028;-80
2023/09/05 02:31:56;;;;;;;5.95;2.85;;;;;;;;;;5094651;28;20058;-80
2023/09/05 02:34:24;;;;;;;6.07;3.05;;;;;;;;;;5073650;28;20115;-79
2023/09/05 02:36:54;;;;;;;5.90;3.53;;;;;;;;;;5073098;28;20523;-80
2023/09/05 02:39:21;;;;;;;;;;;;;;;;;;5073441;28;20048;-80
2023/09/05 02:41:47;;;;;;;6.03;3.05;;;;;;;;;;5073043;28;19943;-80
2023/09/05 02:44:14;;;;;;;5.50;3.15;;;;;;;;;;5071865;28;20080;-80
2023/09/05 02:46:40;;;;;;;5.22;3.08;;;;;;;;;;5073265;28;20067;-80
2023/09/05 02:49:07;;;;;;;5.82;3.30;;;;;;;;;;5073534;28;20048;-80
2023/09/05 02:51:35;;;;;;;5.70;2.85;;;;;;;;;;5073344;28;20667;-80
2023/09/05 02:54:01;;;;;;;4.80;3.00;;;;;;;;;;5073264;28;20047;-79
2023/09/05 02:56:28;;;;;;;5.35;3.42;;;;;;;;;;5072637;28;20514;-79
2023/09/05 02:58:54;;;;;;;7.72;3.47;;;;;;;;;;5072940;28;20056;-80
2023/09/05 03:01:21;;;;;;;6.47;3.28;;;;;;;;;;5071798;28;20067;-81
2023/09/05 03:03:49;;;;;;;6.85;3.65;;;;;;;;;;5072354;28;20048;-80
2023/09/05 03:06:17;;;;;;;5.97;3.22;;;;;;;;;;5073189;28;20044;-80
2023/09/05 03:08:46;;;;;;;5.97;3.25;;;;;;;;;;5071513;28;20055;-81
2023/09/05 03:11:15;;;;;;;7.47;3.45;;;;;;;;;;5072438;28;20054;-80
2023/09/05 03:13:41;;;;;;;4.95;3.15;;;;;;;;;;5072050;28;20048;-80
2023/09/05 03:16:08;;;;;;;5.70;3.50;;;;;;;;;;5072104;28;20041;-81
2023/09/05 03:18:34;;;;;;;6.68;3.42;;;;;;;;;;5073414;28;20054;-80
2023/09/05 03:21:01;;;;;;;5.95;3.72;;;;;;;;;;5072392;28;20486;-80
2023/09/05 03:23:28;;;;;;;6.28;3.80;;;;;;;;;;5072311;28;20052;-80
2023/09/05 03:25:56;;;;;;;5.55;3.00;;;;;;;;;;5071127;28;20040;-80
2023/09/05 03:28:23;;;;;;;7.03;3.33;;;;;;;;;;5071992;28;20048;-79
2023/09/05 03:30:50;;;;;;;5.65;3.35;;;;;;;;;;5071423;28;20093;-80
2023/09/05 03:33:16;;;;;;;5.90;3.45;;;;;;;;;;5073280;28;20040;-79
2023/09/05 03:35:44;;;;;;;6.43;3.40;;;;;;;;;;5071500;28;20425;-80
2023/09/05 03:38:11;;;;;;;7.53;3.75;;;;;;;;;;5072110;28;20092;-79
2023/09/05 03:40:38;;;;;;;6.25;3.53;;;;;;;;;;5072258;28;20048;-80
2023/09/05 03:43:06;;;;;;;5.43;3.25;;;;;;;;;;5071142;28;20243;-80
2023/09/05 03:45:32;;;;;;;6.55;3.88;;;;;;;;;;5070690;28;20044;-80
2023/09/05 03:48:00;;;;;;;7.47;3.90;;;;;;;;;;5068732;28;20098;-79
2023/09/05 03:50:26;;;;;;;6.78;4.22;;;;;;;;;;5071760;28;20083;-80
2023/09/05 03:52:53;;;;;;;6.18;3.50;;;;;;;;;;5071877;28;20095;-79
2023/09/05 03:55:19;;;;;;;6.07;3.50;;;;;;;;;;5070750;28;20040;-79
2023/09/05 03:57:46;;;;;;;5.28;3.58;;;;;;;;;;5072061;28;20135;-79
2023/09/05 04:00:15;;;;;;;5.40;3.45;;;;;;;;;;5071899;28;20052;-79
2023/09/05 04:02:41;;;;;;;6.13;3.58;;;;;;;;;;5072141;28;20056;-80
2023/09/05 04:05:08;;;;;;;5.70;3.83;;;;;;;;;;5072089;28;20041;-80
2023/09/05 04:07:35;;;;;;;8.27;4.20;;;;;;;;;;5072308;28;20107;-80
2023/09/05 04:10:02;;;;;;;6.68;3.58;;;;;;;;;;5072552;28;20415;-80
2023/09/05 04:12:28;;;;;;;7.05;4.13;;;;;;;;;;5073031;28;20051;-80
2023/09/05 04:14:55;;;;;;;6.65;4.25;;;;;;;;;;5072282;28;20051;-80
2023/09/05 04:17:23;;;;;;;7.05;3.70;;;;;;;;;;5068112;28;20045;-80
2023/09/05 04:19:53;;;;;;;5.82;3.40;;;;;;;;;;5073232;28;20049;-80
2023/09/05 04:22:20;;;;;;;5.90;3.67;;;;;;;;;;5070205;28;20056;-80
2023/09/05 04:24:46;;;;;;;6.07;3.70;;;;;;;;;;5073525;28;20040;-80
2023/09/05 04:27:13;;;;;;;5.93;3.85;;;;;;;;;;5077042;28;20053;-79
2023/09/05 04:29:39;;;;;;;7.10;3.95;;;;;;;;;;5079657;28;20135;-79
2023/09/05 04:32:06;;;;;;;6.28;3.80;;;;;;;;;;5078772;28;20056;-81
2023/09/05 04:34:34;;;;;;;8.38;4.30;;;;;;;;;;5077904;28;20051;-81
2023/09/05 04:37:01;;;;;;;6.65;4.03;;;;;;;;;;5081969;28;20411;-79
2023/09/05 04:39:27;;;;;;;7.95;3.75;;;;;;;;;;5079861;28;20045;-80
2023/09/05 04:41:54;;;;;;;8.32;4.22;;;;;;;;;;5083077;28;20067;-80
2023/09/05 04:44:21;;;;;;;6.47;4.00;;;;;;;;;;5081338;28;20049;-80
2023/09/05 04:49:15;;;;;;;7.35;4.30;;;;;;;;;;5029515;28;20470;-62
2023/09/05 04:51:42;;;;;;;6.78;3.67;;;;;;;;;;5034116;28;20046;-62
2023/09/05 04:54:09;;;;;;;7.57;4.20;;;;;;;;;;5047335;28;20373;-63
2023/09/05 04:56:36;;;;;;;8.32;4.32;;;;;;;;;;5045643;28;20417;-62
2023/09/05 04:59:02;;;;;;;8.07;4.40;;;;;;;;;;5043502;28;20049;-63
2023/09/05 05:01:29;;;;;;;5.75;3.60;;;;;;;;;;5038756;28;20536;-62
2023/09/05 05:03:56;;;;;;;6.35;3.78;;;;;;;;;;5045334;28;20337;-61
2023/09/05 05:06:28;;;;;;;7.53;4.32;;;;;;;;;;5040820;28;20071;-61
2023/09/05 05:08:56;;;;;;;6.85;4.18;;;;;;;;;;5043230;28;20391;-61
2023/09/05 05:11:23;;;;;;;7.43;4.18;;;;;;;;;;5040870;28;20429;-62
2023/09/05 05:13:49;;;;;;;6.45;3.85;;;;;;;;;;5038152;28;20501;-61
2023/09/05 05:16:16;;;;;;;7.55;4.30;;;;;;;;;;5038220;28;20046;-63
2023/09/05 05:18:43;;;;;;;5.78;4.50;;;;;;;;;;5033806;28;20049;-63
2023/09/05 05:21:09;;;;;;;6.43;4.10;;;;;;;;;;5036441;28;20123;-62
2023/09/05 05:23:36;;;;;;;7.45;3.83;;;;;;;;;;5034097;28;20049;-62
2023/09/05 05:26:04;;;;;;;6.78;3.72;;;;;;;;;;5031277;28;20049;-62
2023/09/05 05:28:31;;;;;;;10.85;4.05;;;;;;;;;;5036001;28;20135;-61
2023/09/05 05:30:57;;;;;;;6.65;3.72;;;;;;;;;;5037119;28;20419;-61
2023/09/05 05:33:24;;;;;;;8.60;4.95;;;;;;;;;;5035307;28;20084;-64
2023/09/05 05:35:54;;;;;;;8.15;3.97;;;;;;;;;;5036479;28;20056;-62
2023/09/05 05:38:20;;;;;;;7.75;4.22;;;;;;;;;;5046137;28;20051;-61
2023/09/05 05:40:48;;;;;;;5.70;3.97;;;;;;;;;;5039716;28;20426;-63
2023/09/05 05:43:15;;;;;;;5.75;4.10;;;;;;;;;;5036491;28;20041;-62
2023/09/05 05:45:42;;;;;;;6.30;4.40;;;;;;;;;;5040629;28;20107;-61
2023/09/05 05:48:10;;;;;;;6.22;4.35;;;;;;;;;;5037648;28;20516;-62
2023/09/05 05:50:37;;;;;;;6.18;4.05;;;;;;;;;;5041254;28;20421;-63
2023/09/05 05:53:04;;;;;;;8.43;4.22;;;;;;;;;;5037695;28;20460;-63
2023/09/05 05:55:31;;;;;;;7.50;4.13;;;;;;;;;;5037040;28;20487;-63
2023/09/05 05:57:57;;;;;;;6.32;3.95;;;;;;;;;;5038792;28;20077;-63
2023/09/05 06:00:27;;;;;;;6.53;4.10;;;;;;;;;;5031032;28;20136;-63
2023/09/05 06:02:55;;;;;;;6.70;3.65;;;;;;;;;;5034667;28;20095;-64
2023/09/05 06:05:22;;;;;;;8.52;4.10;;;;;;;;;;5034092;28;20465;-62
2023/09/05 06:07:49;;;;;;;6.40;4.13;;;;;;;;;;5040549;28;20048;-61
2023/09/05 06:10:16;;;;;;;6.43;3.92;;;;;;;;;;5036764;28;20045;-61
2023/09/05 06:12:43;;;;;;;8.00;3.85;;;;;;;;;;5032342;28;20051;-63
2023/09/05 06:15:11;;;;;;;7.30;4.20;;;;;;;;;;5032633;28;20095;-61
2023/09/05 06:17:39;;;;;;;8.90;4.53;;;;;;;;;;5035453;28;20072;-62
2023/09/05 06:20:07;;;;;;;6.82;4.45;;;;;;;;;;5032830;28;20115;-60
2023/09/05 06:22:33;;;;;;;7.03;4.05;;;;;;;;;;5034179;28;20051;-62
2023/09/05 06:25:01;;;;;;;7.32;4.03;;;;;;;;;;5030160;28;20522;-63
2023/09/05 06:27:28;;;;;;;6.18;3.80;;;;;;;;;;5038217;28;20041;-61
2023/09/05 06:29:54;;;;;;;7.10;3.97;;;;;;;;;;5037084;28;20132;-61
2023/09/05 06:32:21;;;;;;;7.45;4.55;;;;;;;;;;5026245;28;20041;-61
2023/09/05 06:34:50;;;;;;;7.63;4.50;;;;;;;;;;5034763;28;20049;-63
2023/09/05 06:37:17;;;;;;;6.85;3.90;;;;;;;;;;5036104;28;20395;-63
2023/09/05 06:39:44;;;;;;;6.55;3.80;;;;;;;;;;5034684;28;20775;-62
2023/09/05 06:42:12;;;;;;;8.15;4.25;;;;;;;;;;5025038;28;20037;-62
2023/09/05 06:44:40;;;;;;;6.60;3.92;;;;;;;;;;5029844;28;20046;-63
2023/09/05 06:47:06;;;;;;;6.10;3.92;;;;;;;;;;5032995;28;20041;-62
2023/09/05 06:49:33;;;;;;;5.85;3.55;;;;;;;;;;5030365;28;20038;-63
2023/09/05 06:52:01;;;;;;;7.80;4.05;;;;;;;;;;5034146;28;20052;-62
2023/09/05 06:54:28;;;;;;;5.78;3.67;;;;;;;;;;5030031;28;20073;-63
2023/09/05 06:56:54;;;;;;;6.47;3.70;;;;;;;;;;5025492;28;20041;-62
2023/09/05 06:59:21;;;;;;;7.38;4.03;;;;;;;;;;5034304;28;20045;-62
2023/09/05 07:01:47;;;;;;;6.57;3.97;;;;;;;;;;5032941;28;20041;-62
2023/09/05 07:04:14;;;;;;;6.20;3.95;;;;;;;;;;5031194;28;20662;-62
2023/09/05 07:06:41;;;;;;;6.28;3.80;;;;;;;;;;5034212;28;20168;-62
2023/09/05 07:09:09;;;;;;;6.65;4.20;;;;;;;;;;5030016;28;20051;-63
2023/09/05 07:11:35;;;;;;;6.60;4.15;;;;;;;;;;5031861;28;20095;-62
2023/09/05 07:14:02;;;;;;;5.53;3.47;;;;;;;;;;5022811;28;20046;-62
2023/09/05 07:16:29;;;;;;;6.10;4.22;;;;;;;;;;5030501;28;20133;-62
2023/09/05 07:18:55;;;;;;;6.32;3.95;;;;;;;;;;5037807;28;20041;-62
2023/09/05 07:21:22;;;;;;;7.53;3.67;;;;;;;;;;5031378;28;20085;-63
2023/09/05 07:23:48;;;;;;;5.40;3.83;;;;;;;;;;5031055;28;20041;-59
2023/09/05 07:26:17;;;;;;;8.98;3.50;;;;;;;;;;5025263;28;20107;-63
2023/09/05 07:28:46;;;;;;;5.35;3.10;;;;;;;;;;5027558;28;20128;-62
2023/09/05 07:31:14;;;;;;;6.78;3.78;;;;;;;;;;5022673;28;20051;-63
2023/09/05 07:33:41;;;;;;;5.75;4.03;;;;;;;;;;5029437;28;20052;-62
2023/09/05 07:36:08;;;;;;;6.30;3.67;;;;;;;;;;5030732;28;20049;-63
2023/09/05 07:38:34;;;;;;;6.70;4.28;;;;;;;;;;5040390;28;20055;-63
2023/09/05 07:41:02;;;;;;;6.78;3.75;;;;;;;;;;5023745;28;20137;-63
2023/09/05 07:43:30;;;;;;;8.82;3.50;;;;;;;;;;5019564;28;20442;-62
2023/09/05 07:45:56;;;;;;;8.43;4.15;;;;;;;;;;5017283;28;20053;-66
2023/09/05 07:48:23;;;;;;;8.75;3.75;;;;;;;;;;5019073;28;20735;-68
2023/09/05 07:50:51;;;;;;;6.32;3.78;;;;;;;;;;5023854;28;20053;-59
2023/09/05 07:53:18;;;;;;;5.32;3.22;;;;;;;;;;5024557;28;20116;-61
2023/09/05 07:55:44;;;;;;;6.85;3.70;;;;;;;;;;5019183;28;20045;-61
2023/09/05 07:58:12;;;;;;;7.88;3.70;;;;;;;;;;5025547;28;20422;-65
2023/09/05 08:00:42;;;;;;;6.55;3.92;;;;;;;;;;5029693;28;20530;-65
2023/09/05 08:03:09;;;;;;;5.50;3.35;;;;;;;;;;5033291;28;20102;-67
2023/09/05 08:05:36;;;;;;;6.82;3.72;;;;;;;;;;5028163;28;20059;-62
2023/09/05 08:08:02;;;;;;;6.30;3.42;;;;;;;;;;5030458;28;20041;-62
2023/09/05 08:10:29;;;;;;;5.65;3.53;;;;;;;;;;5030143;28;20514;-62
2023/09/05 08:12:56;;;;;;;7.40;3.30;;;;;;;;;;5044618;28;20045;-63
2023/09/05 08:15:22;;;;;;;5.88;3.28;;;;;;;;;;5036275;28;20053;-64
2023/09/05 08:17:50;;;;;;;7.78;3.45;;;;;;;;;;5036272;28;20037;-64
2023/09/05 08:20:17;;;;;;;5.90;3.17;;;;;;;;;;5021970;28;20061;-64
2023/09/05 08:22:46;;;;;;;6.68;3.47;;;;;;;;;;5031865;28;20049;-64
2023/09/05 08:25:15;;;;;;;5.20;3.25;;;;;;;;;;5033120;28;20130;-63
2023/09/05 08:27:42;;;;;;;6.90;3.67;;;;;;;;;;5027727;28;20042;-64
2023/09/05 08:30:11;;;;;;;5.35;3.00;;;;;;;;;;5023267;28;20658;-63
2023/09/05 08:32:37;;;;;;;6.85;3.95;;;;;;;;;;5028473;28;20095;-64
2023/09/05 08:35:09;;;;;;;6.85;3.42;;;;;;;;;;5033502;28;20049;-64
2023/09/05 08:37:35;;;;;;;4.85;2.90;;;;;;;;;;5039506;28;20052;-63
2023/09/05 08:40:03;;;;;;;6.07;3.17;;;;;;;;;;5044011;28;20049;-62
2023/09/05 08:42:31;;;;;;;5.05;3.20;;;;;;;;;;5027326;28;20056;-62
2023/09/05 08:44:59;;;;;;;5.00;3.08;;;;;;;;;;5028316;28;20128;-63
2023/09/05 08:47:27;;;;;;;6.85;3.20;;;;;;;;;;5027030;28;20049;-60
2023/09/05 08:49:54;;;;;;;4.72;2.70;;;;;;;;;;5027266;28;20069;-60
2023/09/05 08:52:25;;;;;;;6.00;3.65;;;;;;;;;;5030942;28;20050;-70
2023/09/05 08:54:52;;;;;;;7.43;3.53;;;;;;;;;;5027447;28;20071;-61
2023/09/05 08:57:20;;;;;;;5.07;2.97;;;;;;;;;;5033295;28;20059;-62
2023/09/05 08:59:46;;;;;;;5.15;3.40;;;;;;;;;;5027693;28;20045;-62
2023/09/05 09:02:14;;;;;;;5.22;3.42;;;;;;;;;;5026343;28;20053;-62
2023/09/05 09:04:50;;;;;;;5.05;2.85;;;;;;;;;;5031548;28;20042;-59
2023/09/05 09:07:17;;;;;;;5.75;3.08;;;;;;;;;;5034975;28;20052;-61
2023/09/05 09:09:46;;;;;;;6.00;3.42;;;;;;;;;;5030918;28;20149;-61
2023/09/05 09:12:12;;;;;;;6.07;3.17;;;;;;;;;;5028505;28;20143;-61
2023/09/05 09:14:39;;;;;;;8.15;3.50;;;;;;;;;;5030599;28;20407;-61
2023/09/05 09:17:06;;;;;;;5.70;3.45;;;;;;;;;;5029823;28;20069;-61
2023/09/05 09:19:33;;;;;;;6.72;3.60;;;;;;;;;;5034444;28;20053;-61
2023/09/05 09:22:02;;;;;;;6.53;3.30;;;;;;;;;;5036522;28;20064;-61
2023/09/05 09:24:33;;;;;;;5.70;3.00;;;;;;;;;;5033560;28;20045;-61
2023/09/05 09:27:04;;;;;;;6.32;3.92;;;;;;;;;;5031673;28;20056;-61
2023/09/05 09:29:31;;;;;;;6.47;3.38;;;;;;;;;;5029084;28;20045;-61
2023/09/05 09:32:03;;;;;;;5.40;3.42;;;;;;;;;;5037455;28;20651;-61
2023/09/05 09:34:30;;;;;;;5.47;3.50;;;;;;;;;;5027215;28;20055;-60
2023/09/05 09:36:58;;;;;;;6.32;3.33;;;;;;;;;;5027778;28;20038;-60
2023/09/05 09:39:25;;;;;;;5.30;3.40;;;;;;;;;;5030431;28;20053;-60
2023/09/05 09:41:51;;;;;;;4.93;2.97;;;;;;;;;;5021655;28;20042;-60
2023/09/05 09:44:28;;;;;;;5.85;3.33;;;;;;;;;;5025848;28;20042;-61
2023/09/05 09:46:57;;;;;;;5.85;3.22;;;;;;;;;;5031997;28;20038;-60
2023/09/05 09:49:25;;;;;;;4.93;3.05;;;;;;;;;;5028114;28;20140;-61
2023/09/05 09:51:54;;;;;;;6.07;3.28;;;;;;;;;;5028690;28;20087;-61
2023/09/05 09:54:29;;;;;;;5.30;3.30;;;;;;;;;;5026233;28;20499;-61
2023/09/05 09:56:59;;;;;;;5.85;3.47;;;;;;;;;;5022659;28;20045;-61
2023/09/05 09:59:33;;;;;;;4.60;3.10;;;;;;;;;;5028933;28;20048;-62
2023/09/05 10:02:00;;;;;;;4.70;3.03;;;;;;;;;;5031274;28;20080;-61
2023/09/05 10:04:28;;;;;;;5.88;3.35;;;;;;;;;;5021901;28;20136;-61
2023/09/05 10:06:56;;;;;;;5.68;3.80;;;;;;;;;;5029061;28;20081;-61
2023/09/05 10:09:24;;;;;;;5.35;3.13;;;;;;;;;;5037692;28;20052;-61
2023/09/05 10:11:52;;;;;;;5.43;3.50;;;;;;;;;;5026756;28;20060;-60
2023/09/05 10:14:19;;;;;;;5.57;3.42;;;;;;;;;;5031887;28;20052;-61
2023/09/05 10:16:49;;;;;;;4.68;3.13;;;;;;;;;;5032811;28;20041;-60
2023/09/05 10:19:17;;;;;;;5.47;3.75;;;;;;;;;;5027228;28;20768;-61
2023/09/05 10:21:47;;;;;;;5.28;3.80;;;;;;;;;;5030935;28;20050;-61
2023/09/05 10:24:15;;;;;;;7.32;3.70;;;;;;;;;;5026256;28;20136;-61
2023/09/05 10:26:42;;;;;;;7.03;3.30;;;;;;;;;;5031367;28;20049;-61
2023/09/05 10:29:34;;;;;;;6.15;3.35;;;;;;;;;;5041718;28;20500;-61
2023/09/05 10:32:04;;;;;;;5.82;3.83;;;;;;;;;;5036140;28;20052;-62
2023/09/05 10:35:02;;;;;;;5.50;3.63;;;;;;;;;;5020291;28;20487;-62
2023/09/05 10:37:39;;;;;;;5.78;3.80;;;;;;;;;;5027805;28;20472;-62
2023/09/05 10:40:08;;;;;;;5.78;3.38;;;;;;;;;;5026241;28;20568;-62
2023/09/05 10:42:36;;;;;;;5.30;3.38;;;;;;;;;;5037708;28;20410;-61
2023/09/05 10:45:18;;;;;;;5.85;3.20;;;;;;;;;;5026537;28;20045;-61
2023/09/05 10:47:47;;;;;;;4.82;3.30;;;;;;;;;;5024130;28;20053;-62
2023/09/05 10:50:19;;;;;;;6.20;3.67;;;;;;;;;;5026468;28;20384;-61
2023/09/05 10:52:49;;;;;;;5.00;2.95;;;;;;;;;;5027066;28;20103;-61
2023/09/05 10:55:39;;;;;;;6.85;3.67;;;;;;;;;;5022258;28;20629;-61
2023/09/05 10:58:39;;;;;;;4.95;3.33;;;;;;;;;;5026177;28;20049;-60
2023/09/05 11:01:44;;;;;;;6.57;3.30;;;;;;;;;;5034962;28;20041;-61
2023/09/05 11:04:24;;;;;;;5.55;3.20;;;;;;;;;;5021183;28;20045;-61
2023/09/05 11:06:59;;;;;;;6.50;3.03;;;;;;;;;;5037631;28;20045;-60
2023/09/05 11:09:26;;;;;;;5.07;3.00;;;;;;;;;;5046285;28;20489;-61
2023/09/05 11:11:53;;;;;;;7.05;3.17;;;;;;;;;;5038639;28;20052;-61
2023/09/05 11:14:30;;;;;;;5.38;3.00;;;;;;;;;;5027088;28;20068;-60
2023/09/05 11:16:57;;;;;;;4.95;3.10;;;;;;;;;;5048999;28;20486;-61
2023/09/05 11:19:40;;;;;;;5.97;3.47;;;;;;;;;;5049104;28;20048;-61
2023/09/05 11:22:10;;;;;;;6.93;3.67;;;;;;;;;;5034445;28;20057;-60
2023/09/05 11:24:37;;;;;;;6.28;3.00;;;;;;;;;;5020310;28;20049;-61
2023/09/05 11:27:06;;;;;;;4.78;2.92;;;;;;;;;;5026719;28;20124;-60
2023/09/05 11:29:33;;;;;;;5.30;2.70;;;;;;;;;;5025327;28;20466;-61
2023/09/05 11:32:00;;;;;;;6.65;3.47;;;;;;;;;;5034704;28;20603;-62
2023/09/05 11:34:27;;;;;;;5.60;3.53;;;;;;;;;;5028723;28;20053;-61
2023/09/05 11:36:55;;;;;;;5.47;3.42;;;;;;;;;;5026103;28;20091;-63
2023/09/05 11:39:25;;;;;;;5.70;3.88;;;;;;;;;;5035274;28;20052;-61
2023/09/05 11:41:54;;;;;;;6.05;3.40;;;;;;;;;;5026362;28;20055;-61
2023/09/05 11:44:38;;;;;;;6.18;3.35;;;;;;;;;;5030346;28;20049;-62
2023/09/05 11:47:05;;;;;;;6.72;3.88;;;;;;;;;;5025590;28;20469;-61
2023/09/05 11:49:33;;;;;;;15.45;7.63;;;;;;;;;;5014639;28;20056;-62
2023/09/05 11:52:03;;;;;;;6.90;3.80;;;;;;;;;;5028279;28;20422;-62
2023/09/05 11:54:30;;;;;;;10.63;6.10;;;;;;;;;;5025766;28;20077;-60
2023/09/05 11:56:58;;;;;;;7.22;3.47;;;;;;;;;;5026977;28;20050;-62
2023/09/05 11:59:25;;;;;;;13.52;8.02;;;;;;;;;;5023225;28;20049;-62
2023/09/05 12:01:52;;;;;;;6.00;3.45;;;;;;;;;;5020409;28;20078;-62
2023/09/05 12:04:19;;;;;;;5.53;3.08;;;;;;;;;;5034287;28;20054;-62
2023/09/05 12:06:49;;;;;;;5.82;2.90;;;;;;;;;;5042649;28;20052;-62
2023/09/05 12:09:20;;;;;;;6.28;3.17;;;;;;;;;;5032795;28;20510;-62
2023/09/05 12:11:47;;;;;;;5.97;2.70;;;;;;;;;;5048556;28;20529;-62
2023/09/05 12:14:16;;;;;;;6.15;3.00;;;;;;;;;;5029370;28;20045;-62
2023/09/05 12:16:46;;;;;;;4.68;3.10;;;;;;;;;;5028624;28;20076;-62
2023/09/05 12:19:13;;;;;;;6.57;3.72;;;;;;;;;;5033473;28;20513;-62
2023/09/05 12:21:41;;;;;;;6.38;3.50;;;;;;;;;;5043670;28;20048;-62
2023/09/05 12:24:23;;;;;;;4.90;3.20;;;;;;;;;;5033335;28;20487;-65
2023/09/05 12:26:52;;;;;;;7.03;3.45;;;;;;;;;;5026197;28;20933;-60
2023/09/05 12:29:21;;;;;;;6.50;4.28;;;;;;;;;;5029187;28;20418;-62
2023/09/05 12:31:49;;;;;;;5.95;3.78;;;;;;;;;;5027229;28;20550;-61
2023/09/05 12:34:17;;;;;;;5.65;3.53;;;;;;;;;;5026201;28;20045;-61
2023/09/05 12:36:43;;;;;;;7.75;3.30;;;;;;;;;;5026066;28;20049;-61
2023/09/05 12:39:10;;;;;;;9.40;4.22;;;;;;;;;;5031173;28;20049;-61
2023/09/05 12:41:38;;;;;;;6.43;3.80;;;;;;;;;;5036056;28;20059;-61
2023/09/05 12:44:06;;;;;;;5.57;3.33;;;;;;;;;;5030488;28;20136;-61
2023/09/05 12:46:34;;;;;;;5.97;3.60;;;;;;;;;;5020469;28;20076;-60
2023/09/05 12:49:01;;;;;;;7.85;4.53;;;;;;;;;;5021846;28;20052;-60
2023/09/05 12:51:28;;;;;;;9.02;5.38;;;;;;;;;;5039157;28;20646;-59
2023/09/05 12:53:54;;;;;;;6.63;4.10;;;;;;;;;;5043677;28;20483;-58
2023/09/05 12:56:23;;;;;;;9.30;3.88;;;;;;;;;;5033139;28;20057;-59
2023/09/05 12:58:51;;;;;;;5.78;3.60;;;;;;;;;;5038379;28;20045;-61
2023/09/05 13:01:18;;;;;;;7.00;4.43;;;;;;;;;;5049835;28;20053;-64
2023/09/05 13:03:46;;;;;;;6.28;3.65;;;;;;;;;;5029467;28;20077;-62
2023/09/05 13:06:13;;;;;;;7.38;3.88;;;;;;;;;;5026179;28;20037;-62
2023/09/05 13:08:39;;;;;;;8.75;4.90;;;;;;;;;;5030603;28;20038;-62
2023/09/05 13:11:06;;;;;;;6.72;4.10;;;;;;;;;;5030946;28;20050;-62
2023/09/05 13:13:32;;;;;;;7.30;4.15;;;;;;;;;;5030873;28;20038;-61
2023/09/05 13:16:00;;;;;;;7.70;4.70;;;;;;;;;;5030508;28;20556;-60
2023/09/05 13:18:27;;;;;;;6.65;4.05;;;;;;;;;;5032948;28;20045;-61
2023/09/05 13:20:53;;;;;;;6.82;3.78;;;;;;;;;;5027959;28;20569;-60
2023/09/05 13:23:20;;;;;;;8.02;4.25;;;;;;;;;;5034505;28;20056;-61
2023/09/05 13:25:47;;;;;;;6.93;4.10;;;;;;;;;;5026453;28;20052;-61
2023/09/05 13:28:14;;;;;;;7.25;4.30;;;;;;;;;;5028685;28;20053;-61
2023/09/05 13:30:40;;;;;;;6.78;3.88;;;;;;;;;;5029795;28;20439;-61
2023/09/05 13:33:09;;;;;;;6.20;3.85;;;;;;;;;;5030562;28;20045;-61
2023/09/05 13:35:36;;;;;;;7.72;4.38;;;;;;;;;;5026968;28;20050;-61
2023/09/05 13:38:03;;;;;;;6.60;3.97;;;;;;;;;;5031866;28;20049;-61
2023/09/05 13:40:30;;;;;;;6.65;4.20;;;;;;;;;;5036199;28;20491;-61
2023/09/05 13:42:58;;;;;;;5.68;3.75;;;;;;;;;;5035387;28;20053;-60
2023/09/05 13:45:26;;;;;;;7.63;4.18;;;;;;;;;;5039717;28;20080;-61
2023/09/05 13:47:53;;;;;;;7.28;3.90;;;;;;;;;;5029474;28;20469;-61
2023/09/05 13:50:21;;;;;;;6.25;3.53;;;;;;;;;;5031370;28;20080;-61
2023/09/05 13:52:49;;;;;;;7.75;3.25;;;;;;;;;;5037481;28;20092;-61
2023/09/05 13:55:15;;;;;;;6.25;4.10;;;;;;;;;;5028277;28;20057;-61
2023/09/05 13:57:44;;;;;;;6.30;3.85;;;;;;;;;;5045188;28;20049;-61
2023/09/05 14:00:11;;;;;;;5.20;3.20;;;;;;;;;;5025905;28;20061;-62
2023/09/05 14:02:38;;;;;;;5.35;3.90;;;;;;;;;;5037041;28;20049;-62
2023/09/05 14:05:06;;;;;;;6.15;3.75;;;;;;;;;;5041373;28;20136;-61
2023/09/05 14:07:34;;;;;;;5.03;3.15;;;;;;;;;;5034750;28;20052;-61
2023/09/05 14:10:00;;;;;;;5.25;3.45;;;;;;;;;;5029303;28;20049;-61
2023/09/05 14:12:27;;;;;;;6.38;3.80;;;;;;;;;;5029307;28;20045;-62
2023/09/05 14:14:54;;;;;;;5.90;3.78;;;;;;;;;;5033670;28;20056;-61
2023/09/05 14:17:20;;;;;;;5.63;3.42;;;;;;;;;;5026541;28;20136;-61
2023/09/05 14:19:47;;;;;;;5.80;3.40;;;;;;;;;;5035727;28;20081;-62
2023/09/05 14:22:13;;;;;;;5.03;3.15;;;;;;;;;;5035510;28;20049;-61
2023/09/05 14:24:41;;;;;;;6.75;3.75;;;;;;;;;;5029829;28;20077;-61
2023/09/05 14:27:08;;;;;;;6.32;3.50;;;;;;;;;;5038811;28;20049;-62
2023/09/05 14:29:34;;;;;;;7.53;3.88;;;;;;;;;;5031975;28;20418;-61
2023/09/05 14:32:01;;;;;;;5.78;3.30;;;;;;;;;;5035889;28;20041;-61
2023/09/05 14:34:28;;;;;;;9.27;5.70;;;;;;;;;;5030462;28;20049;-62
2023/09/05 14:36:54;;;;;;;14.25;8.57;;;;;;;;;;5040073;28;20053;-62
2023/09/05 14:39:22;;;;;;;10.02;6.25;;;;;;;;;;5034056;28;20045;-61
2023/09/05 14:41:50;;;;;;;7.72;4.85;;;;;;;;;;5030031;28;20062;-62
2023/09/05 14:44:17;;;;;;;5.60;3.88;;;;;;;;;;5037275;28;20455;-62
2023/09/05 14:46:43;;;;;;;12.05;7.72;;;;;;;;;;5030583;28;20053;-61
2023/09/05 14:49:12;;;;;;;4.95;3.42;;;;;;;;;;5028118;28;20088;-61
2023/09/05 14:51:38;;;;;;;6.82;3.60;;;;;;;;;;5024823;28;20140;-61